Llanbrynmair, United Kingdom
Current Conditions -  °F | °C
As of 7:50 AM on Tuesday 21 Oct 2014 (Local Time) from EGOS Reporting Station
Broken Clouds Broken Clouds  
Wind Chill: 52°   Ceiling: 4500
Heat Index: 52°   Visibility: 6mi
Dew Point: 43°   Wind: 17mph
Humidity: 71%   Direction: 280°W
Pressure: 29.5"   Gusts: NA
Location:  52.61°N, 3.63°W
Report Text: EGOS 210650Z 28015KT 9999 FEW025 SCT039 BKN045 11/06 Q0999 BLU NOSIG
Loading
Personal Weather Stations






























Interactive Weather Map
Tropical Storm Tracking
New forecast layout! Learn more

10-Day Weather Forecast

Advertisements
Track Severe Weather on mobile